Time;durP1;ratioP1;P1;durP2;ratioP2;P2;SDS_P1;SDS_P2;PMS_P1;PMS_P2;Temp;Humidity;BMP_temperature;BMP_pressure;BME280_temperature;BME280_humidity;BME280_pressure;Samples;Min_cycle;Max_cycle;Signal;HPM_P1;HPM_P2
2022/08/19 04:01:36;;;;;;;24.23;20.43;;;20.90;99.90;;;;;;5527503;23;20584;-73
2022/08/19 04:04:04;;;;;;;30.50;20.83;;;20.80;99.90;;;;;;5011917;28;20455;-73
2022/08/19 04:06:32;;;;;;;23.37;19.50;;;20.70;99.90;;;;;;5012312;28;20522;-73
2022/08/19 04:09:01;;;;;;;23.63;19.53;;;20.70;99.90;;;;;;5012593;28;20450;-73
2022/08/19 04:11:31;;;;;;;28.17;21.03;;;20.70;99.90;;;;;;5012500;28;20533;-73
2022/08/19 04:13:58;;;;;;;27.23;21.00;;;20.70;99.90;;;;;;5012491;28;20463;-75
2022/08/19 04:16:28;;;;;;;23.30;19.60;;;20.60;99.90;;;;;;5019619;23;20573;-73
2022/08/19 04:18:56;;;;;;;25.10;21.03;;;20.60;99.90;;;;;;5012290;28;20443;-73
2022/08/19 04:21:26;;;;;;;27.73;21.03;;;20.60;99.90;;;;;;5012111;28;20457;-73
2022/08/19 04:23:53;;;;;;;24.40;19.60;;;20.60;99.90;;;;;;5012327;28;20462;-73
2022/08/19 04:26:23;;;;;;;30.07;20.70;;;20.60;99.90;;;;;;5011947;28;20495;-75
2022/08/19 04:28:51;;;;;;;26.07;19.50;;;20.60;99.90;;;;;;5012124;28;20450;-73
2022/08/19 04:31:20;;;;;;;27.43;21.13;;;20.60;99.90;;;;;;5011534;28;20459;-73
2022/08/19 04:33:47;;;;;;;25.03;19.60;;;20.60;99.90;;;;;;5012163;28;20924;-73
2022/08/19 04:36:20;;;;;;;25.10;19.63;;;20.60;99.90;;;;;;5011963;28;20490;-73
2022/08/19 04:38:47;;;;;;;23.60;18.90;;;20.60;99.90;;;;;;5012345;28;20447;-73
2022/08/19 04:43:58;;;;;;;28.53;22.30;;;20.70;99.90;;;;;;5011753;28;20969;-73
2022/08/19 04:46:25;;;;;;;27.50;20.93;;;20.60;99.90;;;;;;5012045;28;20498;-73
2022/08/19 04:48:52;;;;;;;28.67;21.20;;;20.60;99.90;;;;;;5012073;28;20455;-73
2022/08/19 04:51:20;;;;;;;28.50;22.60;;;20.60;99.90;;;;;;5011930;28;20459;-73
2022/08/19 04:53:47;;;;;;;27.33;21.00;;;20.60;99.90;;;;;;5012164;28;20541;-73
2022/08/19 04:56:17;;;;;;;30.13;23.70;;;20.50;99.90;;;;;;5011380;28;20467;-73
2022/08/19 04:58:45;;;;;;;28.40;22.23;;;20.50;99.90;;;;;;5012099;28;20465;-73
2022/08/19 05:01:14;;;;;;;26.70;19.83;;;20.40;99.90;;;;;;5011969;28;20461;-73
2022/08/19 05:03:41;;;;;;;28.07;21.50;;;20.50;99.90;;;;;;5011645;28;20832;-73
2022/08/19 05:06:10;;;;;;;26.57;21.20;;;20.50;99.90;;;;;;5011293;28;20495;-73
2022/08/19 05:08:41;;;;;;;25.87;20.87;;;20.50;99.90;;;;;;5012053;28;20538;-73
2022/08/19 05:11:11;;;;;;;35.30;21.40;;;20.60;99.90;;;;;;5012032;28;20443;-73
2022/08/19 05:13:38;;;;;;;29.30;21.70;;;20.60;99.90;;;;;;5011883;28;20516;-73
2022/08/19 05:16:05;;;;;;;33.33;23.60;;;20.50;99.90;;;;;;5013843;28;20993;-73
2022/08/19 05:24:08;;;;;;;28.80;21.60;;;20.60;99.90;;;;;;5015323;28;20543;-73
2022/08/19 05:26:35;;;;;;;27.90;21.80;;;20.60;99.90;;;;;;5015270;28;20530;-73
2022/08/19 05:29:02;;;;;;;29.43;21.53;;;20.60;99.90;;;;;;5015612;28;20462;-73
2022/08/19 05:31:30;;;;;;;27.90;21.60;;;20.50;99.90;;;;;;5015318;28;20827;-73
2022/08/19 05:33:58;;;;;;;27.60;21.77;;;20.50;99.90;;;;;;5014985;28;20454;-73
2022/08/19 05:36:25;;;;;;;29.23;22.27;;;20.50;99.90;;;;;;5015064;28;20897;-73
2022/08/19 05:38:52;;;;;;;27.97;21.70;;;20.50;99.90;;;;;;5015490;28;20822;-73
2022/08/19 05:41:29;;;;;;;26.77;20.80;;;20.50;99.90;;;;;;5015041;28;20844;-73
2022/08/19 05:43:56;;;;;;;29.80;21.93;;;20.50;99.90;;;;;;5015120;28;20864;-73
2022/08/19 05:46:24;;;;;;;29.13;21.67;;;20.50;99.90;;;;;;5014982;28;20849;-73
2022/08/19 05:48:51;;;;;;;29.77;22.17;;;20.50;99.90;;;;;;5015113;28;20541;-73
2022/08/19 05:51:17;;;;;;;26.20;21.73;;;20.50;99.90;;;;;;5015029;28;20813;-73
2022/08/19 05:53:45;;;;;;;29.10;21.67;;;20.50;99.90;;;;;;5014955;28;20465;-73
2022/08/19 05:56:14;;;;;;;26.47;21.40;;;20.50;99.90;;;;;;5014575;28;20474;-73
2022/08/19 05:58:44;;;;;;;32.90;23.30;;;20.50;99.90;;;;;;5014669;28;20466;-73
2022/08/19 06:01:14;;;;;;;29.97;22.20;;;20.50;99.90;;;;;;5015026;28;20450;-73
2022/08/19 06:03:41;;;;;;;26.80;20.93;;;20.50;99.90;;;;;;5014807;28;20455;-73
2022/08/19 06:06:10;;;;;;;27.30;21.77;;;20.60;99.90;;;;;;5014446;28;20585;-73
2022/08/19 06:08:38;;;;;;;31.93;22.30;;;20.50;99.90;;;;;;5014619;28;20443;-73
2022/08/19 06:11:20;;;;;;;29.47;22.70;;;20.50;99.90;;;;;;5014521;28;20463;-75
2022/08/19 06:13:50;;;;;;;31.47;22.83;;;20.50;99.90;;;;;;5014920;28;20454;-73
2022/08/19 06:16:22;;;;;;;26.93;21.00;;;20.50;99.90;;;;;;5014054;28;20528;-73
2022/08/19 06:18:51;;;;;;;31.83;22.17;;;20.50;99.90;;;;;;5014452;28;20447;-73
2022/08/19 06:21:18;;;;;;;29.00;22.27;;;20.50;99.90;;;;;;5014485;28;20455;-73
2022/08/19 06:23:47;;;;;;;29.00;22.13;;;20.60;99.90;;;;;;5014480;28;20465;-73
2022/08/19 06:26:14;;;;;;;30.63;22.23;;;20.60;99.90;;;;;;5013788;28;20494;-74
2022/08/19 06:28:42;;;;;;;28.17;22.07;;;20.60;99.90;;;;;;5014544;28;20559;-73
2022/08/19 06:31:11;;;;;;;32.20;22.30;;;20.60;99.90;;;;;;5014499;28;20454;-73
2022/08/19 06:33:38;;;;;;;30.60;23.60;;;20.60;99.90;;;;;;5014787;28;20465;-73
2022/08/19 06:36:05;;;;;;;34.70;23.20;;;20.50;99.90;;;;;;5014062;28;20512;-73
2022/08/19 06:38:33;;;;;;;32.03;23.07;;;20.50;99.90;;;;;;5014200;28;20454;-73
2022/08/19 06:41:02;;;;;;;33.50;22.13;;;20.50;99.90;;;;;;5014249;28;20454;-73
2022/08/19 06:43:29;;;;;;;35.53;22.37;;;20.50;99.90;;;;;;5013829;28;20458;-73
2022/08/19 06:45:56;;;;;;;29.57;23.10;;;20.40;99.90;;;;;;5013639;28;20577;-74
2022/08/19 06:48:24;;;;;;;32.13;23.50;;;20.40;99.90;;;;;;5014170;28;20459;-73
2022/08/19 06:50:51;;;;;;;33.57;23.20;;;20.50;99.90;;;;;;5013866;28;20458;-73
2022/08/19 06:53:18;;;;;;;29.57;23.13;;;20.40;99.90;;;;;;5013706;28;20958;-73
2022/08/19 06:55:45;;;;;;;35.23;23.80;;;20.40;99.90;;;;;;5013564;28;20505;-73
2022/08/19 06:58:12;;;;;;;35.93;24.43;;;20.40;99.90;;;;;;5013905;28;20455;-73
2022/08/19 07:00:40;;;;;;;32.33;24.70;;;20.50;99.90;;;;;;5013669;28;20454;-74
2022/08/19 07:03:07;;;;;;;35.10;24.30;;;20.50;99.90;;;;;;5013531;28;20462;-74
2022/08/19 07:05:39;;;;;;;36.47;25.27;;;20.40;99.90;;;;;;5013253;28;20513;-74
2022/08/19 07:08:07;;;;;;;33.07;24.27;;;20.50;99.90;;;;;;5013719;28;20494;-74
2022/08/19 07:10:36;;;;;;;33.07;24.67;;;20.40;99.90;;;;;;5013554;28;20458;-74
2022/08/19 07:13:03;;;;;;;32.53;23.90;;;20.40;99.90;;;;;;5013626;28;20459;-74
2022/08/19 07:15:30;;;;;;;31.03;23.37;;;20.40;99.90;;;;;;5012812;28;21021;-74
2022/08/19 07:17:57;;;;;;;32.20;22.70;;;20.40;99.90;;;;;;5013389;28;20453;-74
2022/08/19 07:20:24;;;;;;;30.17;24.17;;;20.50;99.90;;;;;;5013486;28;20485;-74
2022/08/19 07:22:52;;;;;;;32.17;24.37;;;20.50;99.90;;;;;;5013545;28;20509;-74
2022/08/19 07:25:21;;;;;;;29.40;23.60;;;20.50;99.90;;;;;;5013041;28;20455;-74
2022/08/19 07:27:50;;;;;;;36.87;25.27;;;20.50;99.90;;;;;;5013371;28;20439;-74
2022/08/19 07:30:16;;;;;;;34.17;26.00;;;20.50;99.90;;;;;;5012969;28;20517;-74
2022/08/19 07:32:44;;;;;;;32.50;24.80;;;20.60;99.90;;;;;;5012738;28;20962;-74
2022/08/19 07:35:10;;;;;;;36.27;25.30;;;20.60;99.90;;;;;;5012966;28;20457;-74
2022/08/19 07:37:38;;;;;;;36.87;25.83;;;20.70;99.90;;;;;;5012385;28;20439;-74
2022/08/19 07:40:08;;;;;;;33.53;25.53;;;20.70;99.90;;;;;;5013245;28;20461;-74
2022/08/19 07:42:35;;;;;;;36.10;25.80;;;20.70;99.90;;;;;;5013128;28;20459;-74
2022/08/19 07:45:02;;;;;;;40.10;26.10;;;20.70;99.90;;;;;;5012375;28;20483;-74
2022/08/19 07:47:29;;;;;;;43.70;27.40;;;20.60;99.90;;;;;;5012522;28;20500;-74
2022/08/19 07:49:57;;;;;;;34.80;26.43;;;20.70;99.90;;;;;;5012974;28;20541;-74
2022/08/19 07:52:24;;;;;;;37.00;26.40;;;20.60;99.90;;;;;;5012958;28;20458;-74
2022/08/19 07:54:50;;;;;;;34.97;27.60;;;20.60;99.90;;;;;;5012602;28;20533;-74
2022/08/19 07:57:19;;;;;;;31.20;25.30;;;20.60;99.90;;;;;;5012872;28;20463;-74
2022/08/19 07:59:46;;;;;;;36.87;26.80;;;20.60;99.90;;;;;;5012373;28;20458;-74
2022/08/19 08:02:12;;;;;;;38.37;27.13;;;20.50;99.90;;;;;;5012940;28;20454;-74
2022/08/19 08:10:09;;;;;;;35.87;25.13;;;20.50;99.90;;;;;;5012446;28;20423;-74
2022/08/19 08:12:41;;;;;;;31.37;24.90;;;20.50;99.90;;;;;;5012601;28;20470;-74
2022/08/19 08:15:11;;;;;;;33.03;25.77;;;20.50;99.90;;;;;;5012287;28;20451;-74
2022/08/19 08:17:39;;;;;;;31.90;25.07;;;20.50;99.90;;;;;;5012462;28;20455;-74
2022/08/19 08:20:07;;;;;;;32.13;25.43;;;20.50;99.90;;;;;;5012295;28;21004;-74
2022/08/19 08:25:20;;;;;;;30.93;23.43;;;20.60;99.90;;;;;;5012012;28;20415;-74
2022/08/19 08:27:49;;;;;;;39.67;24.27;;;20.60;99.90;;;;;;5012260;28;20489;-74
2022/08/19 08:30:20;;;;;;;31.33;22.97;;;20.60;99.90;;;;;;5012233;28;20509;-74
2022/08/19 08:32:47;;;;;;;44.23;23.90;;;20.60;99.90;;;;;;5012235;28;20915;-74
2022/08/19 08:35:17;;;;;;;34.63;23.97;;;20.60;99.90;;;;;;5011651;28;20466;-74
2022/08/19 08:37:44;;;;;;;31.73;22.70;;;20.60;99.90;;;;;;5012260;28;20812;-74
2022/08/19 08:40:21;;;;;;;29.50;22.80;;;20.60;99.90;;;;;;5012243;28;20457;-74
2022/08/19 08:42:58;;;;;;;31.67;22.47;;;20.60;99.90;;;;;;5012101;28;20449;-74
2022/08/19 08:45:25;;;;;;;31.33;23.67;;;20.60;99.90;;;;;;5011592;28;20934;-74
2022/08/19 08:47:56;;;;;;;33.30;24.53;;;20.60;99.90;;;;;;5012167;28;20494;-74
2022/08/19 08:50:35;;;;;;;29.03;22.03;;;20.60;99.90;;;;;;5013615;28;20454;-74
2022/08/19 08:53:05;;;;;;;31.10;23.40;;;20.60;99.90;;;;;;5016324;28;20508;-74
2022/08/19 08:55:32;;;;;;;29.60;22.33;;;20.60;99.90;;;;;;5015563;28;20483;-74
2022/08/19 08:58:05;;;;;;;31.20;21.40;;;20.70;99.90;;;;;;5015897;28;20455;-74
2022/08/19 09:00:35;;;;;;;33.43;23.50;;;20.70;99.90;;;;;;5016071;28;20455;-74
2022/08/19 09:03:03;;;;;;;28.67;21.97;;;20.70;99.90;;;;;;5015886;28;20954;-74
2022/08/19 09:05:42;;;;;;;34.03;23.70;;;20.80;99.90;;;;;;5015780;28;20486;-74
2022/08/19 09:08:16;;;;;;;31.93;25.23;;;20.80;99.90;;;;;;5015990;28;20478;-74
2022/08/19 09:10:48;;;;;;;37.03;26.20;;;20.80;99.90;;;;;;5015913;28;20449;-74
2022/08/19 09:13:27;;;;;;;33.00;24.07;;;20.80;99.90;;;;;;5015928;28;20474;-74
2022/08/19 09:15:57;;;;;;;35.67;24.53;;;20.90;99.90;;;;;;5015371;28;20486;-74
2022/08/19 09:18:25;;;;;;;29.60;23.63;;;20.80;99.90;;;;;;5015969;28;21022;-74
2022/08/19 09:20:52;;;;;;;29.20;23.00;;;21.00;99.90;;;;;;5015336;28;20458;-74
2022/08/19 09:23:19;;;;;;;28.03;22.60;;;20.90;99.90;;;;;;5015648;28;20505;-74
2022/08/19 09:25:46;;;;;;;34.70;24.33;;;21.00;99.90;;;;;;5015241;28;20482;-74
2022/08/19 09:28:13;;;;;;;32.00;25.03;;;21.00;99.90;;;;;;5015570;28;20834;-74
2022/08/19 09:30:42;;;;;;;35.60;25.50;;;21.10;99.90;;;;;;5015357;28;20454;-74
2022/08/19 09:33:09;;;;;;;29.97;23.70;;;21.10;99.90;;;;;;5015287;28;20973;-74
2022/08/19 09:35:36;;;;;;;31.47;22.80;;;21.10;99.90;;;;;;5014685;28;20565;-74
2022/08/19 09:38:03;;;;;;;32.07;24.57;;;21.20;99.90;;;;;;5015178;28;20450;-74
2022/08/19 09:40:31;;;;;;;32.23;23.77;;;21.20;99.90;;;;;;5015350;28;20454;-74
2022/08/19 09:43:02;;;;;;;31.90;23.90;;;21.40;99.90;;;;;;5015082;28;20958;-74
2022/08/19 09:45:29;;;;;;;31.80;24.57;;;21.40;99.90;;;;;;5014818;28;20458;-74
2022/08/19 09:47:58;;;;;;;32.80;24.00;;;21.50;99.90;;;;;;5014813;28;21016;-74
2022/08/19 09:50:25;;;;;;;32.43;25.43;;;21.50;99.90;;;;;;5015179;28;20459;-74
2022/08/19 09:52:56;;;;;;;31.43;26.10;;;21.50;99.90;;;;;;5015206;28;20477;-74
2022/08/19 09:55:23;;;;;;;32.20;24.97;;;21.50;99.90;;;;;;5014934;28;20443;-74
2022/08/19 09:57:50;;;;;;;31.10;24.03;;;21.50;99.90;;;;;;5015081;28;20478;-74
2022/08/19 10:00:17;;;;;;;30.60;22.90;;;21.50;99.90;;;;;;5014527;28;20454;-74
2022/08/19 10:02:44;;;;;;;31.50;24.57;;;21.50;99.90;;;;;;5014384;28;20833;-74
2022/08/19 10:07:56;;;;;;;30.57;25.50;;;21.50;99.90;;;;;;5014578;28;21016;-74
2022/08/19 10:10:23;;;;;;;36.43;28.00;;;21.60;99.90;;;;;;5014524;28;20558;-74
2022/08/19 10:12:50;;;;;;;34.13;24.37;;;21.60;99.90;;;;;;5014186;28;20998;-74
2022/08/19 10:15:20;;;;;;;38.90;25.70;;;21.50;99.90;;;;;;5014508;28;20477;-74
2022/08/19 10:17:47;;;;;;;35.10;27.60;;;21.60;99.90;;;;;;5043062;23;20510;-79
2022/08/19 10:20:15;;;;;;;33.70;25.63;;;21.60;99.90;;;;;;5020445;28;20820;-78
2022/08/19 10:22:43;;;;;;;37.47;28.40;;;21.60;99.90;;;;;;5020379;28;20466;-79
2022/08/19 10:25:10;;;;;;;36.20;26.53;;;21.60;99.90;;;;;;5019992;28;20458;-79
2022/08/19 10:27:37;;;;;;;31.73;24.50;;;21.70;99.90;;;;;;5019553;28;20843;-79
2022/08/19 10:30:06;;;;;;;38.20;26.87;;;21.70;99.90;;;;;;5020588;28;20505;-79
2022/08/19 10:32:33;;;;;;;36.97;27.80;;;21.70;99.90;;;;;;5020450;28;20454;-79
2022/08/19 10:35:00;;;;;;;37.40;27.13;;;21.70;99.90;;;;;;5024431;28;20462;-78
2022/08/19 10:37:30;;;;;;;33.43;23.97;;;21.70;99.90;;;;;;5029887;28;20757;-78
2022/08/19 10:39:57;;;;;;;32.97;26.80;;;21.80;99.90;;;;;;5025265;28;20463;-78
2022/08/19 10:42:24;;;;;;;33.87;26.60;;;21.80;99.90;;;;;;5018752;28;20466;-78
2022/08/19 10:44:50;;;;;;;35.90;25.63;;;21.80;99.90;;;;;;5018706;28;20493;-78
2022/08/19 10:47:17;;;;;;;33.70;26.00;;;21.80;99.90;;;;;;5018037;28;20490;-79
2022/08/19 10:52:35;;;;;;;30.53;23.47;;;21.80;99.90;;;;;;4961888;28;20438;-78
2022/08/19 10:57:49;;;;;;;33.50;26.43;;;21.90;99.90;;;;;;5018280;28;21275;-79
2022/08/19 11:00:16;;;;;;;33.80;26.87;;;21.80;99.90;;;;;;5018739;28;20455;-79
2022/08/19 11:02:44;;;;;;;33.37;25.57;;;21.80;99.90;;;;;;5017975;28;20494;-79
2022/08/19 11:05:11;;;;;;;34.30;26.33;;;21.80;99.90;;;;;;5018321;28;20530;-78
2022/08/19 11:07:40;;;;;;;30.83;24.17;;;21.90;99.90;;;;;;5018081;28;20509;-79
2022/08/19 11:10:09;;;;;;;33.53;25.80;;;21.90;99.90;;;;;;5018379;28;20455;-79
2022/08/19 11:12:38;;;;;;;35.63;27.20;;;21.90;99.90;;;;;;5016573;28;20543;-78
2022/08/19 11:15:07;;;;;;;36.73;26.50;;;22.00;99.90;;;;;;5018297;28;20458;-79
2022/08/19 11:17:35;;;;;;;38.00;29.80;;;21.90;99.90;;;;;;5018226;28;20541;-79
2022/08/19 11:20:05;;;;;;;37.43;28.63;;;21.90;99.90;;;;;;5018170;28;20459;-78
2022/08/19 11:22:32;;;;;;;40.23;28.10;;;21.90;99.90;;;;;;5017382;28;20489;-79
2022/08/19 11:25:00;;;;;;;36.73;26.83;;;22.00;99.90;;;;;;5016890;28;20545;-78
2022/08/19 11:27:28;;;;;;;35.53;28.40;;;21.90;99.90;;;;;;5017703;28;20549;-78
2022/08/19 11:29:55;;;;;;;36.57;29.80;;;22.00;99.90;;;;;;5017800;28;20491;-77
2022/08/19 11:32:22;;;;;;;36.50;28.70;;;22.00;99.90;;;;;;5017203;28;20455;-79
2022/08/19 11:34:49;;;;;;;36.60;28.17;;;22.00;99.90;;;;;;5018086;28;20512;-78
2022/08/19 11:37:16;;;;;;;39.67;30.40;;;22.00;99.90;;;;;;5017884;28;20479;-79
2022/08/19 11:39:43;;;;;;;39.07;28.73;;;22.00;99.90;;;;;;5017845;28;20522;-79
2022/08/19 11:44:55;;;;;;;41.13;29.83;;;22.00;99.90;;;;;;5018378;28;20520;-79
2022/08/19 11:47:23;;;;;;;38.27;28.63;;;22.00;99.90;;;;;;5018569;28;20526;-79
2022/08/19 11:49:50;;;;;;;38.17;28.37;;;22.00;99.90;;;;;;5018380;28;20465;-79
2022/08/19 11:52:16;;;;;;;39.53;29.37;;;22.00;99.90;;;;;;5017699;28;20550;-79
2022/08/19 11:54:43;;;;;;;37.10;28.70;;;22.00;99.90;;;;;;5017630;28;20465;-79
2022/08/19 11:57:11;;;;;;;33.63;26.20;;;22.00;99.90;;;;;;5017831;28;20475;-78
2022/08/19 11:59:38;;;;;;;35.37;27.90;;;22.10;99.90;;;;;;5018186;28;20469;-78
2022/08/19 12:02:05;;;;;;;38.27;27.67;;;22.10;99.90;;;;;;5018317;28;20961;-79
2022/08/19 12:04:32;;;;;;;37.87;27.73;;;22.10;99.90;;;;;;5018384;28;20738;-78
2022/08/19 12:06:59;;;;;;;34.43;26.83;;;22.10;99.90;;;;;;5018232;28;20478;-79
2022/08/19 12:09:26;;;;;;;37.63;28.97;;;22.10;99.90;;;;;;5018701;28;20510;-78
2022/08/19 12:11:52;;;;;;;31.57;25.97;;;22.10;99.90;;;;;;5017580;28;21040;-77
2022/08/19 12:14:21;;;;;;;38.83;28.30;;;22.10;99.90;;;;;;5017189;28;20487;-78
2022/08/19 12:16:47;;;;;;;38.03;27.70;;;22.10;99.90;;;;;;5017386;28;20990;-78
2022/08/19 12:19:15;;;;;;;35.20;26.97;;;22.10;99.90;;;;;;5017521;28;20442;-78
2022/08/19 12:21:42;;;;;;;33.93;28.07;;;22.20;99.90;;;;;;5017664;28;20513;-78
2022/08/19 12:24:09;;;;;;;34.63;26.80;;;22.20;99.90;;;;;;5017146;28;20467;-77
2022/08/19 12:26:36;;;;;;;34.07;28.30;;;22.20;99.90;;;;;;5017564;28;20538;-78
2022/08/19 12:29:03;;;;;;;36.10;28.00;;;22.20;99.90;;;;;;5017507;28;20499;-78
2022/08/19 12:31:32;;;;;;;33.70;26.67;;;22.20;99.90;;;;;;5018661;28;20549;-78
2022/08/19 12:34:02;;;;;;;38.73;28.93;;;22.20;99.90;;;;;;5016945;28;20459;-79
2022/08/19 12:36:29;;;;;;;33.93;26.47;;;22.20;99.90;;;;;;5017914;28;20502;-79
2022/08/19 12:38:58;;;;;;;36.80;25.40;;;22.20;99.90;;;;;;5017545;28;20475;-78
2022/08/19 12:41:25;;;;;;;32.43;25.00;;;22.20;99.90;;;;;;5017345;28;20466;-78
2022/08/19 12:43:52;;;;;;;36.73;26.87;;;22.20;99.90;;;;;;5017633;28;20451;-78
2022/08/19 12:46:20;;;;;;;33.33;26.37;;;22.20;99.90;;;;;;5017176;28;20482;-78
2022/08/19 12:48:48;;;;;;;33.90;25.50;;;22.20;99.90;;;;;;5017451;28;20490;-79
2022/08/19 12:51:17;;;;;;;30.10;24.57;;;22.30;99.90;;;;;;5016840;28;20477;-78
2022/08/19 12:53:45;;;;;;;30.77;25.80;;;22.30;99.90;;;;;;5018119;28;20531;-78
2022/08/19 12:56:14;;;;;;;32.13;25.43;;;22.30;99.90;;;;;;5017288;28;20531;-78
2022/08/19 12:58:42;;;;;;;34.00;25.90;;;22.30;99.90;;;;;;5017309;28;20934;-78
2022/08/19 13:01:11;;;;;;;28.57;23.73;;;22.30;99.90;;;;;;5017453;28;20462;-78
2022/08/19 13:03:38;;;;;;;29.03;22.73;;;22.30;99.90;;;;;;5017160;28;20537;-79
2022/08/19 13:06:07;;;;;;;27.40;23.13;;;22.30;99.90;;;;;;5017010;28;20550;-78
2022/08/19 13:08:34;;;;;;;28.77;22.80;;;22.30;99.90;;;;;;5017722;28;20817;-79
2022/08/19 13:11:10;;;;;;;30.20;22.93;;;22.30;99.90;;;;;;5017586;28;20459;-78
2022/08/19 13:13:40;;;;;;;29.50;22.70;;;22.30;99.90;;;;;;5017391;28;20919;-79
2022/08/19 13:16:08;;;;;;;26.37;22.30;;;22.30;99.90;;;;;;5016678;28;20497;-78
2022/08/19 13:18:35;;;;;;;28.07;23.37;;;22.30;99.90;;;;;;5015997;28;20484;-78
2022/08/19 13:21:04;;;;;;;25.13;22.43;;;22.30;99.90;;;;;;5016218;28;20522;-78
2022/08/19 13:23:32;;;;;;;30.97;24.30;;;22.30;99.90;;;;;;5016824;28;20481;-79
2022/08/19 13:26:00;;;;;;;28.67;22.83;;;22.30;99.90;;;;;;5016470;28;20517;-78
2022/08/19 13:33:10;;;;;;;31.03;24.03;;;22.40;99.90;;;;;;5016166;28;20512;-79
2022/08/19 13:34:00;;;;;;;27.27;23.20;;;22.40;99.90;;;;;;5015889;28;20462;-78
2022/08/19 13:36:27;;;;;;;25.03;21.13;;;22.40;99.90;;;;;;5017569;28;20565;-79
2022/08/19 13:38:56;;;;;;;26.13;20.37;;;22.40;99.90;;;;;;5019776;28;20557;-79
2022/08/19 13:41:23;;;;;;;24.73;20.10;;;22.40;99.90;;;;;;5019514;28;20467;-78
2022/08/19 13:43:50;;;;;;;26.73;23.27;;;22.50;99.90;;;;;;5020534;28;20457;-77
2022/08/19 13:46:16;;;;;;;26.60;21.90;;;22.50;99.90;;;;;;5027108;28;20471;-78
2022/08/19 13:48:44;;;;;;;25.73;21.77;;;22.50;99.90;;;;;;5027145;28;20502;-79
2022/08/19 13:51:11;;;;;;;26.27;21.90;;;22.50;99.90;;;;;;5019459;28;20474;-79
2022/08/19 13:53:38;;;;;;;24.40;19.73;;;22.50;99.90;;;;;;5018303;28;20482;-78
2022/08/19 13:56:08;;;;;;;27.73;21.67;;;22.60;99.90;;;;;;5017923;28;20474;-78
2022/08/19 13:58:35;;;;;;;25.37;22.47;;;22.60;99.90;;;;;;5019544;28;20431;-78
2022/08/19 14:01:02;;;;;;;29.20;23.43;;;22.60;99.90;;;;;;5018788;28;20458;-79
2022/08/19 14:03:29;;;;;;;26.20;21.93;;;22.60;99.90;;;;;;5018172;28;20458;-78
2022/08/19 14:05:56;;;;;;;28.80;22.67;;;22.70;99.90;;;;;;5017929;28;20481;-78
2022/08/19 14:08:23;;;;;;;29.97;21.23;;;22.70;99.90;;;;;;5018226;28;20485;-78
2022/08/19 14:10:50;;;;;;;25.47;21.83;;;22.70;99.90;;;;;;5019064;28;20529;-78
2022/08/19 14:13:21;;;;;;;23.93;20.73;;;22.80;99.90;;;;;;5019437;28;20462;-77
2022/08/19 14:15:48;;;;;;;26.70;20.77;;;22.70;99.90;;;;;;4981105;28;1066648;-78
2022/08/19 14:18:15;;;;;;;30.60;20.73;;;22.70;99.90;;;;;;5019436;28;20431;-79
2022/08/19 14:20:43;;;;;;;23.63;20.10;;;22.80;99.90;;;;;;5019512;28;20453;-78
2022/08/19 14:23:10;;;;;;;23.30;18.73;;;22.80;99.90;;;;;;5019261;28;20459;-79
2022/08/19 14:25:37;;;;;;;26.67;21.13;;;22.80;99.90;;;;;;5018905;28;20466;-78
2022/08/19 14:28:04;;;;;;;28.27;21.63;;;22.80;99.90;;;;;;5019159;28;20487;-78
2022/08/19 14:30:36;;;;;;;24.33;19.13;;;22.80;99.90;;;;;;5019585;28;20494;-79
2022/08/19 14:33:04;;;;;;;25.50;20.63;;;22.80;99.90;;;;;;5018666;28;20537;-77
2022/08/19 14:35:34;;;;;;;26.23;21.83;;;22.80;99.90;;;;;;5019290;28;20860;-78
2022/08/19 14:38:02;;;;;;;25.03;20.40;;;22.80;99.90;;;;;;5019651;28;20562;-79
2022/08/19 14:40:31;;;;;;;24.30;21.70;;;22.80;99.90;;;;;;5020072;28;20463;-79
2022/08/19 14:43:03;;;;;;;28.90;21.47;;;22.80;99.90;;;;;;5019285;28;20459;-78
2022/08/19 14:45:33;;;;;;;30.43;23.00;;;22.80;99.90;;;;;;5019335;28;20448;-78
2022/08/19 14:48:00;;;;;;;26.33;20.53;;;22.80;99.90;;;;;;5018686;28;21021;-79
2022/08/19 14:50:28;;;;;;;23.37;20.53;;;22.80;99.90;;;;;;5018693;28;20513;-78
2022/08/19 14:53:00;;;;;;;24.93;21.47;;;22.80;99.90;;;;;;5019474;28;20455;-78
2022/08/19 14:55:27;;;;;;;26.23;21.13;;;22.70;99.90;;;;;;5019533;28;20534;-78
2022/08/19 14:57:54;;;;;;;26.10;21.80;;;22.80;99.90;;;;;;5018669;28;20483;-79
2022/08/19 15:00:22;;;;;;;27.30;22.60;;;22.80;99.90;;;;;;5019422;28;20526;-78
2022/08/19 15:02:51;;;;;;;25.80;22.77;;;22.80;99.90;;;;;;5019162;28;20467;-79
2022/08/19 15:05:18;;;;;;;26.70;22.40;;;22.80;99.90;;;;;;5017882;28;20457;-79
2022/08/19 15:07:45;;;;;;;24.67;21.57;;;22.80;99.90;;;;;;5018153;28;20478;-79
2022/08/19 15:10:13;;;;;;;26.33;22.23;;;22.70;99.90;;;;;;5018375;28;20455;-79
2022/08/19 15:12:40;;;;;;;26.80;21.43;;;22.60;99.90;;;;;;5018185;28;20458;-79
2022/08/19 15:15:09;;;;;;;26.60;22.57;;;22.60;99.90;;;;;;5018598;28;20880;-78
2022/08/19 15:17:37;;;;;;;24.43;21.10;;;22.60;99.90;;;;;;5018751;28;20936;-79
2022/08/19 15:20:06;;;;;;;24.73;21.70;;;22.60;99.90;;;;;;5018392;28;20461;-79
2022/08/19 15:22:34;;;;;;;27.83;20.70;;;22.50;99.90;;;;;;5018286;28;20546;-78
2022/08/19 15:25:01;;;;;;;23.07;19.07;;;22.50;99.90;;;;;;5018745;28;20471;-79
2022/08/19 15:27:27;;;;;;;22.90;19.10;;;22.50;99.90;;;;;;5016759;28;20502;-78
2022/08/19 15:29:56;;;;;;;22.83;19.40;;;22.50;99.90;;;;;;5016678;28;20494;-78
2022/08/19 15:32:25;;;;;;;26.80;19.63;;;22.40;99.90;;;;;;5017302;28;20974;-79
2022/08/19 15:34:52;;;;;;;23.13;20.63;;;22.40;99.90;;;;;;5017610;28;20462;-79
2022/08/19 15:37:22;;;;;;;21.07;18.70;;;22.40;99.90;;;;;;5017889;28;20777;-79
2022/08/19 15:39:49;;;;;;;22.97;20.27;;;22.40;99.90;;;;;;5018007;28;20694;-79
2022/08/19 15:42:16;;;;;;;25.40;20.17;;;22.40;99.90;;;;;;5017823;28;20463;-78
2022/08/19 15:44:43;;;;;;;23.70;20.83;;;22.30;99.90;;;;;;5017815;28;20974;-78
2022/08/19 15:47:10;;;;;;;23.07;20.57;;;22.30;99.90;;;;;;5017284;28;21045;-78
2022/08/19 15:49:37;;;;;;;24.03;21.10;;;22.30;99.90;;;;;;5017725;28;20499;-79
2022/08/19 15:52:06;;;;;;;23.37;19.90;;;22.20;99.90;;;;;;5017654;28;20454;-78
2022/08/19 15:54:34;;;;;;;21.10;18.83;;;22.20;99.90;;;;;;5017249;28;20459;-78
2022/08/19 16:08:02;;;;;;;22.73;20.13;;;22.10;99.90;;;;;;5018054;28;20415;-78
2022/08/19 16:10:30;;;;;;;20.70;18.50;;;22.10;99.90;;;;;;5017872;28;20450;-77
2022/08/19 16:12:58;;;;;;;21.23;18.03;;;22.10;99.90;;;;;;5017960;28;20456;-78
2022/08/19 16:15:26;;;;;;;22.30;19.00;;;22.10;99.90;;;;;;5016742;28;20546;-77
2022/08/19 16:17:53;;;;;;;21.60;17.77;;;22.10;99.90;;;;;;5051266;23;21084;-74
2022/08/19 16:20:21;;;;;;;20.10;17.80;;;22.20;99.90;;;;;;5012209;28;20935;-73
2022/08/19 16:22:48;;;;;;;22.30;19.87;;;22.10;99.90;;;;;;5012240;28;20942;-73
2022/08/19 16:25:15;;;;;;;20.80;18.00;;;22.10;99.90;;;;;;5012255;28;20446;-73
2022/08/19 16:27:44;;;;;;;21.23;19.03;;;22.10;99.90;;;;;;5012161;28;20471;-74
2022/08/19 16:30:11;;;;;;;20.03;17.90;;;22.00;99.90;;;;;;5012065;28;20494;-73
2022/08/19 16:32:43;;;;;;;22.47;18.50;;;22.00;99.90;;;;;;5012349;28;20451;-73
2022/08/19 16:35:10;;;;;;;19.67;17.20;;;22.10;99.90;;;;;;5012181;28;20457;-74
2022/08/19 16:37:36;;;;;;;24.87;20.10;;;22.10;99.90;;;;;;5012515;28;20470;-73
2022/08/19 16:40:05;;;;;;;22.20;18.83;;;22.10;99.90;;;;;;5012723;28;20465;-74
2022/08/19 16:42:33;;;;;;;20.60;17.97;;;22.10;99.90;;;;;;5012251;28;20463;-74
2022/08/19 16:45:02;;;;;;;22.40;18.23;;;22.10;99.90;;;;;;5012480;28;20462;-74
2022/08/19 16:47:29;;;;;;;23.70;19.57;;;22.10;99.90;;;;;;5012016;28;20837;-74
2022/08/19 16:49:56;;;;;;;23.17;20.47;;;22.10;99.90;;;;;;5011948;28;21043;-74
2022/08/19 16:52:25;;;;;;;25.20;19.93;;;22.10;99.90;;;;;;5012058;28;20951;-73
2022/08/19 16:54:51;;;;;;;25.63;20.20;;;22.10;99.90;;;;;;5011765;28;20497;-74
2022/08/19 16:57:19;;;;;;;23.57;20.77;;;22.10;99.90;;;;;;5011583;28;20482;-73
2022/08/19 16:59:46;;;;;;;26.83;23.27;;;22.10;99.90;;;;;;5011875;28;20826;-73
2022/08/19 17:02:14;;;;;;;25.70;21.80;;;22.20;99.90;;;;;;5012086;28;20465;-74
2022/08/19 17:04:40;;;;;;;23.97;20.50;;;22.20;99.90;;;;;;5011661;28;20459;-73
2022/08/19 17:07:09;;;;;;;24.40;19.50;;;22.20;99.90;;;;;;5012111;28;20475;-74
2022/08/19 17:09:36;;;;;;;23.23;20.10;;;22.20;99.90;;;;;;5011694;28;20990;-74
2022/08/19 17:12:04;;;;;;;24.10;20.70;;;22.20;99.90;;;;;;5014600;28;20824;-73